createdAt,value
2023-02-18T00:02:12.240Z,100343.26
2023-02-18T00:04:39.207Z,100344.52
2023-02-18T00:07:06.268Z,100338.92
2023-02-18T00:09:45.650Z,100327.35
2023-02-18T00:12:16.221Z,100324.69
2023-02-18T00:14:42.863Z,100324.75
2023-02-18T00:17:09.530Z,100326.53
2023-02-18T00:19:43.312Z,100328.71
2023-02-18T00:22:10.039Z,100328.61
2023-02-18T00:24:38.576Z,100321.30
2023-02-18T00:27:08.154Z,100320.45
2023-02-18T00:29:35.155Z,100318.22
2023-02-18T00:32:02.060Z,100313.85
2023-02-18T00:34:33.309Z,100317.90
2023-02-18T00:37:05.624Z,100305.52
2023-02-18T00:39:32.477Z,100296.51
2023-02-18T00:42:01.670Z,100304.85
2023-02-18T00:44:38.720Z,100312.81
2023-02-18T00:47:11.766Z,100313.52
2023-02-18T00:49:43.310Z,100303.52
2023-02-18T00:52:10.195Z,100294.73
2023-02-18T00:54:38.964Z,100286.20
2023-02-18T00:57:08.276Z,100288.09
2023-02-18T00:59:35.006Z,100285.79
2023-02-18T01:02:07.008Z,100278.69
2023-02-18T01:04:37.272Z,100279.95
2023-02-18T01:07:06.306Z,100279.21
2023-02-18T01:09:33.175Z,100285.79
2023-02-18T01:12:11.341Z,100290.50
2023-02-18T01:14:45.998Z,100289.04
2023-02-18T01:17:12.919Z,100293.65
2023-02-18T01:19:40.148Z,100296.71
2023-02-18T01:22:07.129Z,100283.53
2023-02-18T01:24:35.209Z,100271.77
2023-02-18T01:27:02.260Z,100265.54
2023-02-18T01:29:29.290Z,100257.13
2023-02-18T01:32:01.354Z,100251.86
2023-02-18T01:34:28.497Z,100242.93
2023-02-18T01:36:55.881Z,100230.77
2023-02-18T01:39:23.115Z,100224.67
2023-02-18T01:41:54.971Z,100223.30
2023-02-18T01:44:27.048Z,100215.84
2023-02-18T01:47:01.593Z,100214.85
2023-02-18T01:49:33.516Z,100217.27
2023-02-18T01:52:15.199Z,100223.52
2023-02-18T01:54:47.032Z,100220.31
2023-02-18T01:57:18.382Z,100213.63
2023-02-18T01:59:57.670Z,100214.67
2023-02-18T02:02:27.593Z,100203.36
2023-02-18T02:04:55.714Z,100196.39
2023-02-18T02:07:27.675Z,100191.34
2023-02-18T02:09:57.084Z,100185.57
2023-02-18T02:12:42.975Z,100195.72
2023-02-18T02:15:28.502Z,100202.24
2023-02-18T02:18:12.913Z,100197.73
2023-02-18T02:21:26.106Z,100203.88
2023-02-18T02:23:57.059Z,100199.63
2023-02-18T02:26:51.671Z,100197.76
2023-02-18T02:29:40.403Z,100192.11
2023-02-18T02:32:10.245Z,100184.25
2023-02-18T02:34:57.468Z,100182.14
2023-02-18T02:37:48.777Z,100188.98
2023-02-18T02:40:55.091Z,100195.15
2023-02-18T02:43:37.953Z,100198.06
2023-02-18T02:46:21.210Z,100190.58
2023-02-18T02:49:10.481Z,100176.39
2023-02-18T02:51:57.774Z,100176.09
2023-02-18T02:54:29.435Z,100174.54
2023-02-18T02:57:05.696Z,100180.00
2023-02-18T02:59:48.937Z,100178.30
2023-02-18T03:02:50.463Z,100178.38
2023-02-18T03:05:38.345Z,100178.11
2023-02-18T03:09:04.507Z,100183.70
2023-02-18T03:12:28.229Z,100190.65
2023-02-18T03:15:10.427Z,100193.89
2023-02-18T03:17:56.664Z,100191.89
2023-02-18T03:20:35.800Z,100189.63
2023-02-18T03:23:33.374Z,100189.17
2023-02-18T03:26:03.594Z,100197.60
2023-02-18T03:28:31.690Z,100198.75
2023-02-18T03:31:04.064Z,100201.95
2023-02-18T03:33:37.662Z,100201.44
2023-02-18T03:36:13.951Z,100195.08
2023-02-18T03:38:51.056Z,100191.43
2023-02-18T03:41:21.086Z,100190.83
2023-02-18T03:43:50.506Z,100186.89
2023-02-18T03:46:24.676Z,100191.17
2023-02-18T03:48:53.982Z,100189.94
2023-02-18T03:51:21.647Z,100184.13
2023-02-18T03:53:48.728Z,100192.02
2023-02-18T03:56:23.466Z,100190.20
2023-02-18T03:58:50.341Z,100183.88
2023-02-18T04:01:17.220Z,100186.86
2023-02-18T04:03:46.524Z,100179.61
2023-02-18T04:06:17.337Z,100188.70
2023-02-18T04:08:51.060Z,100189.17
2023-02-18T04:11:19.169Z,100189.62
2023-02-18T04:13:51.133Z,100189.20
2023-02-18T04:16:19.228Z,100190.52
2023-02-18T04:18:58.669Z,100184.96
2023-02-18T04:21:28.285Z,100179.52
2023-02-18T04:23:57.557Z,100182.48
2023-02-18T04:26:25.380Z,100171.23
2023-02-18T04:28:52.117Z,100163.50
2023-02-18T04:31:19.086Z,100163.01
2023-02-18T04:33:48.668Z,100170.89
2023-02-18T04:36:15.401Z,100170.88
2023-02-18T04:38:45.938Z,100174.33
2023-02-18T04:41:12.786Z,100169.20
2023-02-18T04:43:39.561Z,100165.96
2023-02-18T04:46:06.580Z,100168.02
2023-02-18T04:48:39.007Z,100177.95
2023-02-18T04:51:11.751Z,100180.96
2023-02-18T04:53:40.193Z,100181.36
2023-02-18T04:56:09.740Z,100180.89
2023-02-18T04:58:37.054Z,100183.92
2023-02-18T05:01:06.926Z,100179.55
2023-02-18T05:03:45.323Z,100176.11
2023-02-18T05:06:14.197Z,100175.67
2023-02-18T05:08:40.947Z,100180.73
2023-02-18T05:11:11.181Z,100181.69
2023-02-18T05:13:38.102Z,100181.24
2023-02-18T05:16:04.922Z,100185.34
2023-02-18T05:18:34.179Z,100189.98
2023-02-18T05:21:00.950Z,100191.34
2023-02-18T05:23:27.700Z,100196.19
2023-02-18T05:25:55.196Z,100196.29
2023-02-18T05:28:22.142Z,100200.21
2023-02-18T05:30:52.139Z,100209.17
2023-02-18T05:33:18.887Z,100212.50
2023-02-18T05:35:45.619Z,100215.33
2023-02-18T05:38:18.405Z,100212.73
2023-02-18T05:40:45.648Z,100210.92
2023-02-18T05:43:14.843Z,100214.72
2023-02-18T05:45:41.698Z,100217.98
2023-02-18T05:48:10.702Z,100227.67
2023-02-18T05:50:37.483Z,100237.45
2023-02-18T05:53:06.152Z,100243.54
2023-02-18T05:55:37.247Z,100243.38
2023-02-18T05:58:06.898Z,100244.31
2023-02-18T06:00:42.507Z,100249.47
2023-02-18T06:03:09.500Z,100251.67
2023-02-18T06:05:36.254Z,100256.23
2023-02-18T06:08:08.392Z,100263.71
2023-02-18T06:10:37.063Z,100266.80
2023-02-18T06:13:05.136Z,100270.84
2023-02-18T06:15:32.099Z,100277.38
2023-02-18T06:17:58.754Z,100282.80
2023-02-18T06:20:25.589Z,100278.05
2023-02-18T06:22:52.625Z,100278.02
2023-02-18T06:25:19.575Z,100284.14
2023-02-18T06:27:47.957Z,100287.40
2023-02-18T06:30:16.238Z,100285.33
2023-02-18T06:32:43.080Z,100287.04
2023-02-18T06:35:09.900Z,100285.59
2023-02-18T06:37:36.652Z,100282.78
2023-02-18T06:40:04.471Z,100287.70
2023-02-18T06:42:33.550Z,100288.61
2023-02-18T06:45:00.314Z,100289.80
2023-02-18T06:47:27.096Z,100290.86
2023-02-18T06:49:53.962Z,100289.87
2023-02-18T06:52:20.804Z,100285.52
2023-02-18T06:54:50.147Z,100287.16
2023-02-18T06:57:19.520Z,100290.69
2023-02-18T06:59:46.544Z,100286.11
2023-02-18T07:02:13.344Z,100288.82
2023-02-18T07:04:40.327Z,100289.52
2023-02-18T07:07:09.366Z,100290.78
2023-02-18T07:09:39.835Z,100292.91
2023-02-18T07:12:06.769Z,100286.60
2023-02-18T07:14:37.376Z,100277.92
2023-02-18T07:17:07.260Z,100274.45
2023-02-18T07:19:44.276Z,100291.39
2023-02-18T07:22:18.984Z,100293.58
2023-02-18T07:25:03.503Z,100292.55
2023-02-18T07:27:30.379Z,100291.32
2023-02-18T07:30:11.071Z,100289.80
2023-02-18T07:32:47.180Z,100280.54
2023-02-18T07:35:20.979Z,100282.08
2023-02-18T07:38:02.710Z,100286.02
2023-02-18T07:40:31.176Z,100294.86
2023-02-18T07:43:01.163Z,100296.66
2023-02-18T07:45:39.226Z,100297.73
2023-02-18T07:48:17.596Z,100296.59
2023-02-18T07:50:47.679Z,100285.30
2023-02-18T07:53:16.051Z,100284.29
2023-02-18T07:55:58.293Z,100288.80
2023-02-18T07:58:35.816Z,100300.80
2023-02-18T08:01:07.162Z,100302.23
2023-02-18T08:03:42.733Z,100302.25
2023-02-18T08:06:21.964Z,100303.16
2023-02-18T08:08:48.818Z,100292.73
2023-02-18T08:11:19.764Z,100295.64
2023-02-18T08:13:50.031Z,100292.44
2023-02-18T08:16:27.282Z,100288.98
2023-02-18T08:19:13.887Z,100286.95
2023-02-18T08:21:53.084Z,100290.33
2023-02-18T08:27:29.083Z,100292.81
2023-02-18T08:30:03.576Z,100297.39
2023-02-18T08:32:30.606Z,100302.16
2023-02-18T08:34:57.476Z,100302.02
2023-02-18T08:37:52.569Z,100297.89
2023-02-18T08:40:21.444Z,100299.48
2023-02-18T08:42:48.396Z,100297.62
2023-02-18T08:45:15.342Z,100291.39
2023-02-18T08:48:18.202Z,100289.75
2023-02-18T08:51:16.433Z,100286.66
2023-02-18T08:53:49.107Z,100289.58
2023-02-18T08:56:42.010Z,100297.86
2023-02-18T08:59:09.199Z,100296.65
2023-02-18T09:01:35.926Z,100303.03
2023-02-18T09:04:04.362Z,100299.80
2023-02-18T09:06:31.343Z,100302.67
2023-02-18T09:09:02.764Z,100301.71
2023-02-18T09:11:32.904Z,100299.50
2023-02-18T09:13:59.758Z,100302.05
2023-02-18T09:16:27.705Z,100303.23
2023-02-18T09:18:59.725Z,100301.32
2023-02-18T09:21:29.004Z,100305.70
2023-02-18T09:23:55.929Z,100309.02
2023-02-18T09:26:24.455Z,100308.54
2023-02-18T09:28:55.790Z,100301.98
2023-02-18T09:31:37.421Z,100301.16
2023-02-18T09:34:14.457Z,100302.95
2023-02-18T09:36:43.998Z,100303.99
2023-02-18T09:39:14.521Z,100309.22
2023-02-18T09:41:45.585Z,100316.13
2023-02-18T09:44:19.811Z,100316.25
2023-02-18T09:46:57.932Z,100318.57
2023-02-18T09:49:34.630Z,100313.96
2023-02-18T09:52:29.341Z,100308.58
2023-02-18T09:55:50.523Z,100306.92
2023-02-18T09:58:37.768Z,100306.72
2023-02-18T10:02:21.300Z,100306.13
2023-02-18T10:05:06.637Z,100311.39
2023-02-18T10:08:44.249Z,100307.48
2023-02-18T10:11:41.320Z,100310.23
2023-02-18T10:14:38.210Z,100312.84
2023-02-18T10:17:11.436Z,100312.94
2023-02-18T10:19:54.979Z,100315.55
2023-02-18T10:22:33.296Z,100315.66
2023-02-18T10:25:10.374Z,100312.80
2023-02-18T10:27:40.923Z,100312.87
2023-02-18T10:30:20.598Z,100309.19
2023-02-18T10:33:32.596Z,100310.66
2023-02-18T10:36:20.615Z,100322.91
2023-02-18T10:39:07.499Z,100328.54
2023-02-18T10:42:05.312Z,100328.23
2023-02-18T10:44:55.438Z,100324.50
2023-02-18T10:50:44.185Z,100320.91
2023-02-18T10:53:16.657Z,100320.84
2023-02-18T10:55:49.335Z,100318.20
2023-02-18T10:58:46.147Z,100319.06
2023-02-18T11:04:43.846Z,100323.91
2023-02-18T11:05:08.410Z,100319.55
2023-02-18T11:07:25.117Z,100324.11
2023-02-18T11:09:58.698Z,100319.02
2023-02-18T11:12:57.472Z,100316.61
2023-02-18T11:15:30.698Z,100315.55
2023-02-18T11:18:25.022Z,100310.15
2023-02-18T11:20:58.826Z,100309.38
2023-02-18T11:23:49.390Z,100305.28
2023-02-18T11:26:27.699Z,100298.15
2023-02-18T11:29:54.100Z,100294.10
2023-02-18T11:32:36.056Z,100290.93
2023-02-18T11:35:13.220Z,100289.18
2023-02-18T11:38:17.282Z,100279.20
2023-02-18T11:40:57.409Z,100271.98
2023-02-18T11:43:55.891Z,100266.27
2023-02-18T11:46:33.629Z,100261.71
2023-02-18T11:49:21.835Z,100259.89
2023-02-18T11:51:52.543Z,100259.10
2023-02-18T11:55:01.260Z,100253.70
2023-02-18T11:57:29.000Z,100244.11
2023-02-18T11:59:56.725Z,100239.52
2023-02-18T12:02:37.487Z,100250.77
2023-02-18T12:05:24.351Z,100250.02
2023-02-18T12:08:09.266Z,100248.92
2023-02-18T12:10:44.222Z,100250.94
2023-02-18T12:13:47.165Z,100257.47
2023-02-18T12:16:30.083Z,100258.92
2023-02-18T12:19:03.088Z,100258.36
2023-02-18T12:21:44.914Z,100258.09
2023-02-18T12:24:40.647Z,100259.69
2023-02-18T12:27:44.645Z,100251.13
2023-02-18T12:30:31.628Z,100245.23
2023-02-18T12:33:37.292Z,100240.22
2023-02-18T12:36:49.357Z,100238.86
2023-02-18T12:39:51.766Z,100235.38
2023-02-18T12:42:36.309Z,100223.75
2023-02-18T12:45:20.315Z,100220.48
2023-02-18T12:48:00.736Z,100211.01
2023-02-18T12:50:50.938Z,100204.45
2023-02-18T12:54:06.885Z,100208.67
2023-02-18T12:57:04.792Z,100206.54
2023-02-18T13:00:00.000Z,100199.11
2023-02-18T13:02:44.913Z,100193.15
2023-02-18T13:05:31.661Z,100191.14
2023-02-18T13:08:15.614Z,100192.30
2023-02-18T13:11:03.938Z,100190.76
2023-02-18T13:13:40.538Z,100183.27
2023-02-18T13:16:14.953Z,100180.51
2023-02-18T13:18:47.237Z,100178.07
2023-02-18T13:21:22.635Z,100171.77
2023-02-18T13:24:26.399Z,100172.11
2023-02-18T13:27:02.999Z,100170.69
2023-02-18T13:29:53.355Z,100171.74
2023-02-18T13:32:36.736Z,100167.59
2023-02-18T13:35:32.027Z,100162.95
2023-02-18T13:38:39.345Z,100161.75
2023-02-18T13:41:09.604Z,100155.27
2023-02-18T13:43:37.083Z,100160.02
2023-02-18T13:46:18.657Z,100156.36
2023-02-18T13:49:05.414Z,100150.23
2023-02-18T13:51:44.013Z,100148.93
2023-02-18T13:54:44.212Z,100144.88
2023-02-18T13:57:25.421Z,100146.48
2023-02-18T13:59:58.407Z,100145.99
2023-02-18T14:02:29.888Z,100152.02
2023-02-18T14:05:15.778Z,100151.53
2023-02-18T14:08:11.029Z,100154.09
2023-02-18T14:10:38.241Z,100146.14
2023-02-18T14:13:43.652Z,100148.18
2023-02-18T14:16:15.343Z,100149.23
2023-02-18T14:18:42.260Z,100145.39
2023-02-18T14:21:13.322Z,100138.04
2023-02-18T14:23:56.009Z,100137.45
2023-02-18T14:26:29.958Z,100131.87
2023-02-18T14:29:02.583Z,100131.12
2023-02-18T14:31:43.532Z,100132.85
2023-02-18T14:34:27.449Z,100135.79
2023-02-18T14:37:01.695Z,100129.88
2023-02-18T14:39:45.370Z,100130.08
2023-02-18T14:42:21.604Z,100128.46
2023-02-18T14:45:11.046Z,100125.85
2023-02-18T14:47:59.639Z,100122.40
2023-02-18T14:50:34.919Z,100119.36
2023-02-18T14:53:20.348Z,100120.27
2023-02-18T14:56:18.201Z,100115.92
2023-02-18T14:58:51.907Z,100110.70
2023-02-18T15:01:25.154Z,100101.52
2023-02-18T15:03:54.346Z,100099.02
2023-02-18T15:06:31.975Z,100101.12
2023-02-18T15:09:15.762Z,100097.45
2023-02-18T15:11:48.821Z,100091.36
2023-02-18T15:14:30.083Z,100089.41
2023-02-18T15:16:58.579Z,100085.40
2023-02-18T15:19:29.623Z,100084.17
2023-02-18T15:21:58.911Z,100089.11
2023-02-18T15:24:27.353Z,100087.66
2023-02-18T15:26:59.110Z,100090.45
2023-02-18T15:29:31.016Z,100083.60
2023-02-18T15:32:00.302Z,100076.30
2023-02-18T15:34:36.027Z,100075.79
2023-02-18T15:37:17.327Z,100078.56
2023-02-18T15:39:46.204Z,100072.48
2023-02-18T15:42:34.663Z,100076.04
2023-02-18T15:45:21.644Z,100070.58
2023-02-18T15:48:02.329Z,100061.52
2023-02-18T15:50:33.204Z,100056.49
2023-02-18T15:53:09.994Z,100060.77
2023-02-18T15:55:52.690Z,100066.76
2023-02-18T15:58:33.471Z,100061.05
2023-02-18T16:01:06.074Z,100055.33
2023-02-18T16:03:39.466Z,100049.45
2023-02-18T16:06:39.886Z,100054.42
2023-02-18T16:09:16.531Z,100055.98
2023-02-18T16:11:58.873Z,100049.70
2023-02-18T16:14:40.530Z,100045.00
2023-02-18T16:20:50.827Z,100048.55
2023-02-18T16:23:49.030Z,100048.25
2023-02-18T16:26:51.076Z,100045.91
2023-02-18T16:30:04.109Z,100042.99
2023-02-18T16:32:41.887Z,100046.52
2023-02-18T16:35:17.522Z,100048.80
2023-02-18T16:37:46.178Z,100049.48
2023-02-18T16:40:43.836Z,100055.01
2023-02-18T16:44:19.841Z,100053.77
2023-02-18T16:46:49.506Z,100055.81
2023-02-18T16:49:38.665Z,100054.07
2023-02-18T16:52:29.344Z,100052.16
2023-02-18T16:55:00.894Z,100045.86
2023-02-18T16:57:42.804Z,100039.48
2023-02-18T17:00:30.647Z,100046.55
2023-02-18T17:03:03.251Z,100054.91
2023-02-18T17:06:00.663Z,100041.11
2023-02-18T17:08:27.993Z,100043.59
2023-02-18T17:11:37.427Z,100038.08
2023-02-18T17:14:21.857Z,100041.77
2023-02-18T17:16:57.682Z,100047.42
2023-02-18T17:19:31.118Z,100049.91
2023-02-18T17:22:01.667Z,100052.19
2023-02-18T17:24:33.060Z,100054.15
2023-02-18T17:27:21.863Z,100055.42
2023-02-18T17:30:20.578Z,100052.88
2023-02-18T17:33:40.178Z,100047.57
2023-02-18T17:36:23.129Z,100048.75
2023-02-18T17:39:02.930Z,100044.02
2023-02-18T17:41:53.800Z,100041.89
2023-02-18T17:44:28.815Z,100025.64
2023-02-18T17:47:05.055Z,100009.08
2023-02-18T17:49:35.863Z,99994.30
2023-02-18T17:52:20.790Z,99999.66
2023-02-18T17:54:55.403Z,99998.71
2023-02-18T17:57:31.082Z,99991.87
2023-02-18T17:59:59.200Z,99993.02
2023-02-18T18:02:29.153Z,99993.61
2023-02-18T18:05:04.757Z,99993.41
2023-02-18T18:07:34.106Z,99995.96
2023-02-18T18:10:10.162Z,99988.96
2023-02-18T18:12:44.319Z,99989.14
2023-02-18T18:15:30.072Z,99987.84
2023-02-18T18:18:04.423Z,99997.84
2023-02-18T18:20:46.164Z,99987.09
2023-02-18T18:23:20.885Z,99974.13
2023-02-18T18:26:17.043Z,99965.18
2023-02-18T18:28:52.474Z,99968.12
2023-02-18T18:31:30.663Z,99967.17
2023-02-18T18:33:59.729Z,99960.52
2023-02-18T18:36:27.789Z,99958.74
2023-02-18T18:39:00.323Z,99961.44
2023-02-18T18:41:33.257Z,99957.23
2023-02-18T18:44:12.675Z,99952.41
2023-02-18T18:47:01.025Z,99937.32
2023-02-18T18:49:31.192Z,99950.95
2023-02-18T18:51:58.045Z,99957.87
2023-02-18T18:54:26.700Z,99970.95
2023-02-18T18:56:54.981Z,99979.55
2023-02-18T18:59:33.245Z,99976.22
2023-02-18T19:02:34.922Z,99980.60
2023-02-18T19:05:31.755Z,99980.48
2023-02-18T19:08:33.472Z,99975.69
2023-02-18T19:11:14.811Z,99978.52
2023-02-18T19:14:09.200Z,99974.57
2023-02-18T19:16:42.758Z,99967.54
2023-02-18T19:19:38.450Z,99964.08
2023-02-18T19:22:20.100Z,99968.40
2023-02-18T19:24:57.015Z,99969.81
2023-02-18T19:27:30.650Z,99963.73
2023-02-18T19:30:26.100Z,99969.86
2023-02-18T19:34:49.813Z,99977.10
2023-02-18T19:36:56.367Z,99970.48
2023-02-18T19:39:50.417Z,99972.99
2023-02-18T19:42:27.829Z,99966.42
2023-02-18T19:45:13.932Z,99969.64
2023-02-18T19:47:49.680Z,99971.52
2023-02-18T19:50:25.631Z,99970.83
2023-02-18T19:53:11.543Z,99965.30
2023-02-18T19:55:38.870Z,99957.90
2023-02-18T19:58:06.857Z,99948.92
2023-02-18T20:00:33.677Z,99951.48
2023-02-18T20:03:05.294Z,99959.33
2023-02-18T20:05:36.622Z,99947.75
2023-02-18T20:08:03.313Z,99937.38
2023-02-18T20:10:32.599Z,99931.52
2023-02-18T20:13:10.679Z,99933.45
2023-02-18T20:15:43.584Z,99934.50
2023-02-18T20:18:32.319Z,99934.98
2023-02-18T20:20:59.302Z,99920.83
2023-02-18T20:23:26.254Z,99919.34
2023-02-18T20:25:54.724Z,99909.48
2023-02-18T20:28:23.708Z,99916.25
2023-02-18T20:31:05.052Z,99909.76
2023-02-18T20:33:32.255Z,99912.34
2023-02-18T20:36:16.473Z,99907.99
2023-02-18T20:38:45.399Z,99904.33
2023-02-18T20:41:17.317Z,99905.04
2023-02-18T20:43:51.492Z,99895.92
2023-02-18T20:46:25.104Z,99895.20
2023-02-18T20:48:53.557Z,99905.73
2023-02-18T20:51:21.945Z,99904.48
2023-02-18T20:53:52.842Z,99912.38
2023-02-18T20:56:23.555Z,99916.48
2023-02-18T20:58:54.489Z,99922.37
2023-02-18T21:01:21.962Z,99918.70
2023-02-18T21:04:04.011Z,99921.09
2023-02-18T21:06:32.970Z,99916.30
2023-02-18T21:09:30.032Z,99913.20
2023-02-18T21:12:10.446Z,99902.84
2023-02-18T21:14:37.201Z,99907.45
2023-02-18T21:17:06.469Z,99920.19
2023-02-18T21:19:37.212Z,99933.07
2023-02-18T21:22:28.604Z,99949.30
2023-02-18T21:25:28.426Z,99955.33
2023-02-18T21:27:55.187Z,99957.84
2023-02-18T21:30:42.093Z,99951.17
2023-02-18T21:33:15.408Z,99942.59
2023-02-18T21:35:55.098Z,99948.47
2023-02-18T21:38:39.462Z,99953.34
2023-02-18T21:41:08.934Z,99952.33
2023-02-18T21:43:55.981Z,99949.67
2023-02-18T21:46:31.685Z,99949.45
2023-02-18T21:49:15.210Z,99958.38
2023-02-18T21:52:10.641Z,99956.94
2023-02-18T21:54:48.151Z,99950.23
2023-02-18T21:57:25.225Z,99958.30
2023-02-18T21:59:55.668Z,99955.52
2023-02-18T22:02:32.918Z,99951.13
2023-02-18T22:05:08.677Z,99941.52
2023-02-18T22:07:44.099Z,99938.84
2023-02-18T22:10:25.782Z,99942.67
2023-02-18T22:12:54.920Z,99946.55
2023-02-18T22:15:21.553Z,99938.73
2023-02-18T22:17:53.344Z,99938.11
2023-02-18T22:20:21.415Z,99940.04
2023-02-18T22:22:49.509Z,99938.41
2023-02-18T22:25:23.239Z,99948.42
2023-02-18T22:28:07.519Z,99959.15
2023-02-18T22:30:35.644Z,99957.80
2023-02-18T22:33:04.079Z,99954.77
2023-02-18T22:35:36.330Z,99956.41
2023-02-18T22:38:03.196Z,99961.86
2023-02-18T22:40:32.238Z,99968.44
2023-02-18T22:43:01.440Z,99968.48
2023-02-18T22:45:44.489Z,99970.71
2023-02-18T22:48:19.919Z,99972.65
2023-02-18T22:50:46.982Z,99973.08
2023-02-18T22:53:13.806Z,99970.30
2023-02-18T22:55:45.340Z,99968.95
2023-02-18T22:58:15.688Z,99968.62
2023-02-18T23:00:50.846Z,99960.25
2023-02-18T23:03:52.605Z,99973.84
2023-02-18T23:06:21.468Z,99977.85
2023-02-18T23:09:02.992Z,99976.04
2023-02-18T23:11:37.590Z,99980.94
2023-02-18T23:14:17.672Z,99984.12
2023-02-18T23:17:09.821Z,99986.22
2023-02-18T23:19:37.473Z,99993.66
2023-02-18T23:22:15.322Z,99990.27
2023-02-18T23:24:45.775Z,99987.84
2023-02-18T23:27:17.299Z,99986.74
2023-02-18T23:29:48.601Z,99984.46
2023-02-18T23:32:16.599Z,99986.41
2023-02-18T23:34:43.616Z,99990.05
2023-02-18T23:37:24.231Z,99996.75
2023-02-18T23:39:51.461Z,99997.25
2023-02-18T23:42:20.108Z,99995.87
2023-02-18T23:44:52.775Z,99991.48
2023-02-18T23:47:22.956Z,99994.83
2023-02-18T23:49:49.603Z,100003.58
2023-02-18T23:52:16.857Z,100004.58
2023-02-18T23:54:43.745Z,100011.18
2023-02-18T23:57:13.195Z,100015.30
2023-02-18T23:59:42.697Z,100011.11
